createdAt,value
2018-03-02T00:00:51.211Z,-2.3
2018-03-02T00:01:54.197Z,-2.3
2018-03-02T00:02:56.599Z,-2.3
2018-03-02T00:03:59.017Z,-2.3
2018-03-02T00:05:01.431Z,-2.3
2018-03-02T00:06:03.842Z,-2.3
2018-03-02T00:07:06.240Z,-2.3
2018-03-02T00:08:09.228Z,-2.3
2018-03-02T00:09:11.943Z,-2.4
2018-03-02T00:10:14.356Z,-2.4
2018-03-02T00:11:16.771Z,-2.4
2018-03-02T00:12:19.475Z,-2.4
2018-03-02T00:13:21.885Z,-2.4
2018-03-02T00:14:24.603Z,-2.4
2018-03-02T00:15:27.007Z,-2.4
2018-03-02T00:16:29.417Z,-2.4
2018-03-02T00:17:31.822Z,-2.4
2018-03-02T00:18:34.233Z,-2.5
2018-03-02T00:19:36.932Z,-2.5
2018-03-02T00:20:39.623Z,-2.5
2018-03-02T00:21:42.309Z,-2.5
2018-03-02T00:22:45.007Z,-2.5
2018-03-02T00:23:47.409Z,-2.5
2018-03-02T00:24:50.103Z,-2.5
2018-03-02T00:25:52.507Z,-2.5
2018-03-02T00:26:55.190Z,-2.5
2018-03-02T00:27:57.610Z,-2.5
2018-03-02T00:29:00.324Z,-2.6
2018-03-02T00:30:02.733Z,-2.6
2018-03-02T00:31:05.136Z,-2.6
2018-03-02T00:32:07.836Z,-2.6
2018-03-02T00:33:10.248Z,-2.6
2018-03-02T00:34:12.664Z,-2.6
2018-03-02T00:35:15.068Z,-2.6
2018-03-02T00:36:17.477Z,-2.6
2018-03-02T00:37:19.904Z,-2.6
2018-03-02T00:38:22.594Z,-2.6
2018-03-02T00:39:25.009Z,-2.6
2018-03-02T00:40:27.999Z,-2.6
2018-03-02T00:41:30.401Z,-2.7
2018-03-02T00:42:32.824Z,-2.7
2018-03-02T00:43:35.512Z,-2.7
2018-03-02T00:44:38.207Z,-2.7
2018-03-02T00:45:40.615Z,-2.7
2018-03-02T00:46:43.022Z,-2.7
2018-03-02T00:47:45.430Z,-2.7
2018-03-02T00:48:47.840Z,-2.7
2018-03-02T00:49:50.244Z,-2.7
2018-03-02T00:50:52.660Z,-2.7
2018-03-02T00:51:55.049Z,-2.7
2018-03-02T00:52:57.752Z,-2.7
2018-03-02T00:54:00.168Z,-2.7
2018-03-02T00:55:02.876Z,-2.7
2018-03-02T00:56:05.284Z,-2.7
2018-03-02T00:57:08.018Z,-2.7
2018-03-02T00:58:10.423Z,-2.7
2018-03-02T00:59:12.841Z,-2.7
2018-03-02T01:00:15.251Z,-2.8
2018-03-02T01:01:17.645Z,-2.8
2018-03-02T01:02:20.056Z,-2.8
2018-03-02T01:03:22.753Z,-2.8
2018-03-02T01:04:25.464Z,-2.8
2018-03-02T01:05:27.880Z,-2.8
2018-03-02T01:06:30.282Z,-2.8
2018-03-02T01:07:32.689Z,-2.8
2018-03-02T01:08:35.400Z,-2.8
2018-03-02T01:09:37.803Z,-2.8
2018-03-02T01:10:40.205Z,-2.7
2018-03-02T01:11:42.962Z,-2.8
2018-03-02T01:12:45.306Z,-2.7
2018-03-02T01:13:47.723Z,-2.7
2018-03-02T01:14:50.130Z,-2.7
2018-03-02T01:15:52.812Z,-2.7
2018-03-02T01:16:55.218Z,-2.7
2018-03-02T01:17:57.623Z,-2.7
2018-03-02T01:19:00.024Z,-2.8
2018-03-02T01:20:02.454Z,-2.8
2018-03-02T01:21:04.879Z,-2.8
2018-03-02T01:22:07.534Z,-2.8
2018-03-02T01:23:09.930Z,-2.8
2018-03-02T01:24:12.338Z,-2.8
2018-03-02T01:25:14.756Z,-2.9
2018-03-02T01:26:17.161Z,-2.9
2018-03-02T01:27:19.574Z,-2.9
2018-03-02T01:28:22.250Z,-2.9
2018-03-02T01:29:24.661Z,-2.9
2018-03-02T01:30:27.066Z,-2.9
2018-03-02T01:31:29.470Z,-3
2018-03-02T01:32:32.438Z,-3
2018-03-02T01:33:34.839Z,-3
2018-03-02T01:34:37.242Z,-3
2018-03-02T01:35:39.646Z,-3
2018-03-02T01:36:42.047Z,-3
2018-03-02T01:37:44.448Z,-3
2018-03-02T01:38:46.862Z,-3
2018-03-02T01:39:49.561Z,-3
2018-03-02T01:40:51.963Z,-3
2018-03-02T01:41:54.373Z,-3
2018-03-02T01:42:57.350Z,-3.1
2018-03-02T01:43:59.762Z,-3.1
2018-03-02T01:45:02.171Z,-3.1
2018-03-02T01:46:04.857Z,-3.1
2018-03-02T01:47:07.535Z,-3.1
2018-03-02T01:48:09.949Z,-3.1
2018-03-02T01:49:12.335Z,-3.1
2018-03-02T01:50:14.737Z,-3.1
2018-03-02T01:51:17.150Z,-3.1
2018-03-02T01:52:19.839Z,-3.1
2018-03-02T01:53:22.532Z,-3.2
2018-03-02T01:54:24.936Z,-3.2
2018-03-02T01:55:27.339Z,-3.2
2018-03-02T01:56:29.757Z,-3.2
2018-03-02T01:57:32.153Z,-3.2
2018-03-02T01:58:34.541Z,-3.2
2018-03-02T01:59:36.944Z,-3.2
2018-03-02T02:00:39.350Z,-3.2
2018-03-02T02:01:41.762Z,-3.2
2018-03-02T02:02:44.171Z,-3.2
2018-03-02T02:03:46.554Z,-3.2
2018-03-02T02:04:48.958Z,-3.2
2018-03-02T02:05:51.952Z,-3.2
2018-03-02T02:06:54.351Z,-3.2
2018-03-02T02:07:56.755Z,-3.2
2018-03-02T02:08:59.159Z,-3.3
2018-03-02T02:10:01.847Z,-3.3
2018-03-02T02:11:04.256Z,-3.3
2018-03-02T02:12:06.658Z,-3.3
2018-03-02T02:13:09.345Z,-3.3
2018-03-02T02:14:11.755Z,-3.3
2018-03-02T02:15:14.466Z,-3.3
2018-03-02T02:16:17.152Z,-3.4
2018-03-02T02:17:19.549Z,-3.4
2018-03-02T02:18:21.955Z,-3.4
2018-03-02T02:19:24.640Z,-3.4
2018-03-02T02:20:27.038Z,-3.4
2018-03-02T02:21:29.446Z,-3.4
2018-03-02T02:22:32.136Z,-3.4
2018-03-02T02:23:34.542Z,-3.5
2018-03-02T02:24:36.937Z,-3.5
2018-03-02T02:25:39.346Z,-3.6
2018-03-02T02:26:41.745Z,-3.6
2018-03-02T02:27:44.146Z,-3.6
2018-03-02T02:28:46.548Z,-3.6
2018-03-02T02:29:48.952Z,-3.6
2018-03-02T02:30:51.924Z,-3.5
2018-03-02T02:31:54.336Z,-3.5
2018-03-02T02:32:57.317Z,-3.5
2018-03-02T02:34:00.028Z,-3.5
2018-03-02T02:35:02.427Z,-3.6
2018-03-02T02:36:05.424Z,-3.6
2018-03-02T02:37:07.831Z,-3.6
2018-03-02T02:38:10.237Z,-3.6
2018-03-02T02:39:12.634Z,-3.6
2018-03-02T02:40:15.049Z,-3.6
2018-03-02T02:41:17.442Z,-3.6
2018-03-02T02:42:20.128Z,-3.6
2018-03-02T02:43:22.538Z,-3.6
2018-03-02T02:44:24.934Z,-3.6
2018-03-02T02:45:27.332Z,-3.6
2018-03-02T02:46:29.746Z,-3.6
2018-03-02T02:47:32.442Z,-3.6
2018-03-02T02:48:34.846Z,-3.6
2018-03-02T02:49:37.250Z,-3.7
2018-03-02T02:50:39.654Z,-3.7
2018-03-02T02:51:42.055Z,-3.7
2018-03-02T02:52:45.349Z,-3.7
2018-03-02T02:53:48.088Z,-3.7
2018-03-02T02:54:50.480Z,-3.7
2018-03-02T02:55:52.894Z,-3.7
2018-03-02T02:56:55.290Z,-3.7
2018-03-02T02:57:57.688Z,-3.7
2018-03-02T02:59:00.368Z,-3.7
2018-03-02T03:00:02.774Z,-3.7
2018-03-02T03:01:05.177Z,-3.7
2018-03-02T03:02:08.180Z,-3.7
2018-03-02T03:03:10.570Z,-3.7
2018-03-02T03:04:12.971Z,-3.7
2018-03-02T03:05:15.671Z,-3.7
2018-03-02T03:06:18.362Z,-3.8
2018-03-02T03:07:20.770Z,-3.7
2018-03-02T03:08:23.462Z,-3.8
2018-03-02T03:09:25.861Z,-3.7
2018-03-02T03:10:28.548Z,-3.7
2018-03-02T03:11:31.237Z,-3.7
2018-03-02T03:12:33.924Z,-3.7
2018-03-02T03:13:36.322Z,-3.7
2018-03-02T03:14:38.731Z,-3.7
2018-03-02T03:15:41.416Z,-3.7
2018-03-02T03:16:43.814Z,-3.7
2018-03-02T03:17:46.217Z,-3.7
2018-03-02T03:18:48.622Z,-3.7
2018-03-02T03:19:51.020Z,-3.7
2018-03-02T03:20:53.711Z,-3.7
2018-03-02T03:21:56.118Z,-3.8
2018-03-02T03:22:58.521Z,-3.8
2018-03-02T03:24:00.919Z,-3.8
2018-03-02T03:25:03.327Z,-3.8
2018-03-02T03:26:05.725Z,-3.9
2018-03-02T03:27:08.703Z,-3.9
2018-03-02T03:28:11.389Z,-3.9
2018-03-02T03:29:14.080Z,-3.9
2018-03-02T03:30:16.480Z,-3.9
2018-03-02T03:31:18.892Z,-3.9
2018-03-02T03:32:21.294Z,-3.9
2018-03-02T03:33:23.699Z,-3.9
2018-03-02T03:34:26.087Z,-3.9
2018-03-02T03:35:28.489Z,-4
2018-03-02T03:36:30.899Z,-4
2018-03-02T03:37:33.305Z,-4
2018-03-02T03:38:35.979Z,-4
2018-03-02T03:39:38.382Z,-4
2018-03-02T03:40:40.778Z,-4
2018-03-02T03:41:43.185Z,-4
2018-03-02T03:42:45.583Z,-4
2018-03-02T03:43:47.979Z,-4
2018-03-02T03:44:50.381Z,-4
2018-03-02T03:45:52.793Z,-4
2018-03-02T03:46:55.195Z,-4
2018-03-02T03:47:57.596Z,-4
2018-03-02T03:49:00.284Z,-4
2018-03-02T03:50:02.686Z,-4
2018-03-02T03:51:05.076Z,-4
2018-03-02T03:52:07.771Z,-4
2018-03-02T03:53:10.181Z,-4
2018-03-02T03:54:12.572Z,-4
2018-03-02T03:55:14.978Z,-4
2018-03-02T03:56:17.377Z,-4
2018-03-02T03:57:19.783Z,-4
2018-03-02T03:58:22.187Z,-4
2018-03-02T03:59:24.586Z,-4
2018-03-02T04:00:26.971Z,-4
2018-03-02T04:01:29.678Z,-4.1
2018-03-02T04:02:32.070Z,-4.1
2018-03-02T04:03:34.477Z,-4.1
2018-03-02T04:04:36.881Z,-4.1
2018-03-02T04:05:39.568Z,-4.1
2018-03-02T04:06:41.973Z,-4.1
2018-03-02T04:07:44.371Z,-4.1
2018-03-02T04:08:46.770Z,-4.1
2018-03-02T04:09:49.173Z,-4.1
2018-03-02T04:10:51.854Z,-4.1
2018-03-02T04:11:54.260Z,-4.1
2018-03-02T04:12:56.654Z,-4.1
2018-03-02T04:13:59.058Z,-4.1
2018-03-02T04:15:01.454Z,-4.1
2018-03-02T04:16:03.853Z,-4.1
2018-03-02T04:17:06.249Z,-4.1
2018-03-02T04:18:08.658Z,-4.1
2018-03-02T04:19:11.056Z,-4.2
2018-03-02T04:20:13.447Z,-4.1
2018-03-02T04:21:15.849Z,-4.2
2018-03-02T04:22:18.249Z,-4.2
2018-03-02T04:23:20.669Z,-4.2
2018-03-02T04:24:23.050Z,-4.2
2018-03-02T04:25:25.444Z,-4.2
2018-03-02T04:26:27.857Z,-4.3
2018-03-02T04:27:30.260Z,-4.3
2018-03-02T04:28:32.656Z,-4.3
2018-03-02T04:29:35.347Z,-4.3
2018-03-02T04:30:37.740Z,-4.3
2018-03-02T04:31:40.418Z,-4.3
2018-03-02T04:32:42.819Z,-4.3
2018-03-02T04:33:45.219Z,-4.3
2018-03-02T04:34:47.906Z,-4.3
2018-03-02T04:35:50.320Z,-4.3
2018-03-02T04:36:52.713Z,-4.4
2018-03-02T04:37:55.105Z,-4.4
2018-03-02T04:38:57.512Z,-4.4
2018-03-02T04:39:59.912Z,-4.4
2018-03-02T04:41:02.314Z,-4.3
2018-03-02T04:42:04.715Z,-4.3
2018-03-02T04:43:07.106Z,-4.3
2018-03-02T04:44:09.508Z,-4.3
2018-03-02T04:45:11.914Z,-4.3
2018-03-02T04:46:14.312Z,-4.3
2018-03-02T04:47:16.706Z,-4.4
2018-03-02T04:48:19.113Z,-4.3
2018-03-02T04:49:21.513Z,-4.4
2018-03-02T04:50:24.202Z,-4.4
2018-03-02T04:51:26.608Z,-4.4
2018-03-02T04:52:29.292Z,-4.4
2018-03-02T04:53:31.993Z,-4.4
2018-03-02T04:54:34.390Z,-4.4
2018-03-02T04:55:36.791Z,-4.4
2018-03-02T04:56:39.192Z,-4.4
2018-03-02T04:57:41.889Z,-4.4
2018-03-02T04:58:44.285Z,-4.4
2018-03-02T04:59:46.686Z,-4.3
2018-03-02T05:00:49.091Z,-4.3
2018-03-02T05:01:51.768Z,-4.3
2018-03-02T05:02:54.167Z,-4.4
2018-03-02T05:03:56.583Z,-4.4
2018-03-02T05:04:58.991Z,-4.4
2018-03-02T05:06:01.393Z,-4.3
2018-03-02T05:07:03.797Z,-4.3
2018-03-02T05:08:06.195Z,-4.3
2018-03-02T05:09:08.606Z,-4.4
2018-03-02T05:10:11.010Z,-4.3
2018-03-02T05:11:13.391Z,-4.3
2018-03-02T05:12:15.787Z,-4.3
2018-03-02T05:13:18.479Z,-4.3
2018-03-02T05:14:20.881Z,-4.3
2018-03-02T05:15:23.283Z,-4.3
2018-03-02T05:16:25.694Z,-4.3
2018-03-02T05:17:28.663Z,-4.3
2018-03-02T05:18:31.061Z,-4.1
2018-03-02T05:19:33.751Z,-4.3
2018-03-02T05:20:36.158Z,-4.3
2018-03-02T05:21:38.908Z,-4.3
2018-03-02T05:22:41.273Z,-4.3
2018-03-02T05:23:43.660Z,-4.3
2018-03-02T05:24:46.341Z,-4.3
2018-03-02T05:25:49.049Z,-4.3
2018-03-02T05:26:51.764Z,-4.3
2018-03-02T05:27:54.162Z,-4.3
2018-03-02T05:28:56.571Z,-4.4
2018-03-02T05:29:58.977Z,-4.4
2018-03-02T05:31:01.665Z,-4.4
2018-03-02T05:32:04.368Z,-4.4
2018-03-02T05:33:07.616Z,-4.4
2018-03-02T05:34:10.017Z,-4.4
2018-03-02T05:35:12.422Z,-4.5
2018-03-02T05:36:14.829Z,-4.5
2018-03-02T05:37:17.223Z,-4.5
2018-03-02T05:38:19.914Z,-4.5
2018-03-02T05:39:22.612Z,-4.5
2018-03-02T05:40:25.023Z,-4.5
2018-03-02T05:41:27.415Z,-4.5
2018-03-02T05:42:29.815Z,-4.5
2018-03-02T05:43:32.216Z,-4.5
2018-03-02T05:44:34.624Z,-4.5
2018-03-02T05:45:37.308Z,-4.5
2018-03-02T05:46:39.731Z,-4.5
2018-03-02T05:47:42.121Z,-4.5
2018-03-02T05:48:44.806Z,-4.5
2018-03-02T05:49:47.217Z,-4.5
2018-03-02T05:50:49.618Z,-4.5
2018-03-02T05:51:52.018Z,-4.5
2018-03-02T05:52:54.419Z,-4.5
2018-03-02T05:53:56.812Z,-4.5
2018-03-02T05:54:59.216Z,-4.5
2018-03-02T05:56:01.616Z,-4.5
2018-03-02T05:57:04.292Z,-4.5
2018-03-02T05:58:06.690Z,-4.5
2018-03-02T05:59:09.408Z,-4.6
2018-03-02T06:00:11.846Z,-4.6
2018-03-02T06:01:14.539Z,-4.6
2018-03-02T06:02:16.945Z,-4.6
2018-03-02T06:03:19.337Z,-4.6
2018-03-02T06:04:21.736Z,-4.6
2018-03-02T06:05:24.138Z,-4.6
2018-03-02T06:06:26.817Z,-4.6
2018-03-02T06:07:29.565Z,-4.6
2018-03-02T06:08:31.923Z,-4.6
2018-03-02T06:09:34.326Z,-4.6
2018-03-02T06:10:37.306Z,-4.6
2018-03-02T06:11:39.713Z,-4.6
2018-03-02T06:12:42.121Z,-4.6
2018-03-02T06:13:44.526Z,-4.6
2018-03-02T06:14:46.927Z,-4.6
2018-03-02T06:15:49.327Z,-4.6
2018-03-02T06:16:51.725Z,-4.6
2018-03-02T06:17:54.126Z,-4.6
2018-03-02T06:18:56.529Z,-4.6
2018-03-02T06:19:58.939Z,-4.6
2018-03-02T06:21:01.637Z,-4.6
2018-03-02T06:22:04.024Z,-4.6
2018-03-02T06:23:06.435Z,-4.5
2018-03-02T06:24:08.829Z,-4.5
2018-03-02T06:25:11.233Z,-4.5
2018-03-02T06:26:13.918Z,-4.5
2018-03-02T06:27:16.610Z,-4.5
2018-03-02T06:28:19.005Z,-4.5
2018-03-02T06:29:21.713Z,-4.4
2018-03-02T06:30:24.401Z,-4.5
2018-03-02T06:31:27.094Z,-4.4
2018-03-02T06:32:29.495Z,-4.4
2018-03-02T06:33:31.900Z,-4.4
2018-03-02T06:34:34.288Z,-4.4
2018-03-02T06:35:36.687Z,-4.4
2018-03-02T06:36:39.085Z,-4.4
2018-03-02T06:37:41.488Z,-4.4
2018-03-02T06:38:44.168Z,-4.4
2018-03-02T06:39:46.568Z,-4.4
2018-03-02T06:40:48.962Z,-4.3
2018-03-02T06:41:51.381Z,-4.3
2018-03-02T06:42:53.782Z,-4.3
2018-03-02T06:43:56.178Z,-4.2
2018-03-02T06:44:58.586Z,-4.2
2018-03-02T06:46:01.268Z,-4.2
2018-03-02T06:47:03.652Z,-4.1
2018-03-02T06:48:06.059Z,-4.1
2018-03-02T06:49:08.743Z,-4
2018-03-02T06:50:11.142Z,-4
2018-03-02T06:51:13.545Z,-4
2018-03-02T06:52:15.949Z,-4
2018-03-02T06:53:18.352Z,-4
2018-03-02T06:54:20.764Z,-4
2018-03-02T06:55:23.159Z,-4
2018-03-02T06:56:25.557Z,-4
2018-03-02T06:57:27.951Z,-4
2018-03-02T06:58:30.359Z,-4
2018-03-02T06:59:32.749Z,-4
2018-03-02T07:00:35.154Z,-4
2018-03-02T07:01:37.550Z,-4
2018-03-02T07:02:39.954Z,-4
2018-03-02T07:03:42.638Z,-4
2018-03-02T07:04:45.047Z,-4
2018-03-02T07:05:47.721Z,-4
2018-03-02T07:06:50.126Z,-4
2018-03-02T07:07:52.514Z,-4
2018-03-02T07:08:54.912Z,-3.9
2018-03-02T07:09:57.314Z,-3.9
2018-03-02T07:10:59.717Z,-3.9
2018-03-02T07:12:02.113Z,-3.8
2018-03-02T07:13:04.525Z,-3.8
2018-03-02T07:14:07.521Z,-3.8
2018-03-02T07:15:09.943Z,-3.7
2018-03-02T07:16:13.203Z,-3.7
2018-03-02T07:17:16.582Z,-3.7
2018-03-02T07:18:19.294Z,-3.6
2018-03-02T07:19:21.706Z,-3.6
2018-03-02T07:20:24.116Z,-3.6
2018-03-02T07:21:26.556Z,-3.5
2018-03-02T07:22:28.925Z,-3.5
2018-03-02T07:23:31.326Z,-3.4
2018-03-02T07:24:33.731Z,-3.4
2018-03-02T07:25:36.129Z,-3.4
2018-03-02T07:26:38.527Z,-3.3
2018-03-02T07:27:41.214Z,-3.3
2018-03-02T07:28:43.617Z,-3.2
2018-03-02T07:29:46.010Z,-3.2
2018-03-02T07:30:48.411Z,-3.2
2018-03-02T07:31:50.821Z,-3.2
2018-03-02T07:32:53.231Z,-3.2
2018-03-02T07:33:55.637Z,-3.1
2018-03-02T07:34:58.037Z,-3.1
2018-03-02T07:36:00.433Z,-3.1
2018-03-02T07:37:02.848Z,-3.1
2018-03-02T07:38:05.538Z,-3.1
2018-03-02T07:39:08.218Z,-3.1
2018-03-02T07:40:10.619Z,-3.1
2018-03-02T07:41:13.033Z,-3.1
2018-03-02T07:42:15.716Z,-3.1
2018-03-02T07:43:18.110Z,-3.1
2018-03-02T07:44:20.852Z,-3
2018-03-02T07:45:23.554Z,-3
2018-03-02T07:46:25.952Z,-3
2018-03-02T07:47:28.353Z,-3
2018-03-02T07:48:30.761Z,-3
2018-03-02T07:49:33.167Z,-3
2018-03-02T07:50:35.568Z,-3
2018-03-02T07:51:37.974Z,-2.9
2018-03-02T07:52:40.371Z,-2.9
2018-03-02T07:53:42.783Z,-2.7
2018-03-02T07:54:45.186Z,-2.7
2018-03-02T07:55:47.578Z,-2.5
2018-03-02T07:56:49.984Z,-2.4
2018-03-02T07:57:52.390Z,-2.2
2018-03-02T07:58:54.798Z,-2.1
2018-03-02T07:59:57.493Z,-1.9
2018-03-02T08:00:59.900Z,-1.7
2018-03-02T08:02:02.586Z,-1.5
2018-03-02T08:03:05.009Z,-1.3
2018-03-02T08:04:07.417Z,-1.2
2018-03-02T08:05:09.805Z,-1
2018-03-02T08:06:12.214Z,-0.8
2018-03-02T08:07:14.615Z,-0.6
2018-03-02T08:08:17.026Z,-0.5
2018-03-02T08:09:19.431Z,-0.3
2018-03-02T08:10:21.833Z,-0.1
2018-03-02T08:11:24.243Z,0
2018-03-02T08:12:26.659Z,0.2
2018-03-02T08:13:29.065Z,0.3
2018-03-02T08:14:31.478Z,0.4
2018-03-02T08:15:33.883Z,0.6
2018-03-02T08:16:36.290Z,0.7
2018-03-02T08:17:38.691Z,0.8
2018-03-02T08:18:41.103Z,0.9
2018-03-02T08:19:43.526Z,1
2018-03-02T08:20:45.928Z,1.2
2018-03-02T08:21:48.340Z,1.3
2018-03-02T08:22:51.034Z,1.5
2018-03-02T08:23:53.452Z,1.6
2018-03-02T08:24:55.868Z,1.8
2018-03-02T08:25:58.283Z,1.9
2018-03-02T08:27:00.677Z,2
2018-03-02T08:28:03.091Z,2.1
2018-03-02T08:29:05.489Z,2.2
2018-03-02T08:30:07.904Z,2.3
2018-03-02T08:31:10.608Z,2.4
2018-03-02T08:32:13.315Z,2.4
2018-03-02T08:33:15.730Z,2.5
2018-03-02T08:34:18.138Z,2.6
2018-03-02T08:35:20.551Z,2.7
2018-03-02T08:36:22.972Z,2.8
2018-03-02T08:37:25.378Z,3
2018-03-02T08:38:27.796Z,3.1
2018-03-02T08:39:30.512Z,3.3
2018-03-02T08:40:33.009Z,3.4
2018-03-02T08:41:36.962Z,3.6
2018-03-02T08:42:41.295Z,3.7
2018-03-02T08:43:46.768Z,3.8
2018-03-02T08:44:49.181Z,3.9
2018-03-02T08:45:51.872Z,4
2018-03-02T08:46:54.292Z,4.1
2018-03-02T08:47:56.708Z,4.2
2018-03-02T08:48:59.122Z,4.2
2018-03-02T08:50:01.558Z,4.3
2018-03-02T08:51:03.959Z,4.4
2018-03-02T08:52:06.942Z,4.5
2018-03-02T08:53:09.945Z,4.5
2018-03-02T08:54:12.356Z,4.6
2018-03-02T08:55:14.772Z,4.6
2018-03-02T08:56:17.183Z,4.7
2018-03-02T08:57:19.586Z,4.8
2018-03-02T08:58:21.996Z,4.8
2018-03-02T08:59:24.410Z,4.9
2018-03-02T09:00:26.820Z,5
2018-03-02T09:01:29.526Z,5
2018-03-02T09:02:31.940Z,5
2018-03-02T09:03:34.363Z,5.1
2018-03-02T09:04:36.766Z,5
2018-03-02T09:05:39.189Z,5.1
2018-03-02T09:06:41.602Z,5
2018-03-02T09:07:44.300Z,5
2018-03-02T09:08:46.708Z,5
2018-03-02T09:09:49.120Z,5
2018-03-02T09:10:51.841Z,5
2018-03-02T09:11:54.261Z,5.1
2018-03-02T09:12:56.669Z,5.2
2018-03-02T09:13:59.079Z,5.3
2018-03-02T09:15:01.500Z,5.4
2018-03-02T09:16:04.197Z,5.4
2018-03-02T09:17:06.909Z,5.4
2018-03-02T09:18:09.310Z,5.4
2018-03-02T09:19:12.041Z,5.5
2018-03-02T09:20:14.457Z,5.5
2018-03-02T09:21:16.876Z,5.5
2018-03-02T09:22:19.293Z,5.6
2018-03-02T09:23:21.710Z,5.6
2018-03-02T09:24:24.139Z,5.6
2018-03-02T09:25:26.552Z,5.7
2018-03-02T09:26:28.973Z,5.7
2018-03-02T09:27:31.390Z,5.8
2018-03-02T09:28:33.791Z,5.9
2018-03-02T09:29:36.207Z,6
2018-03-02T09:30:38.631Z,6
2018-03-02T09:31:41.057Z,6.1
2018-03-02T09:32:43.464Z,6.1
2018-03-02T09:33:45.885Z,6.1
2018-03-02T09:34:48.592Z,6.1
2018-03-02T09:35:51.338Z,6.1
2018-03-02T09:36:54.042Z,6.2
2018-03-02T09:37:57.025Z,6.2
2018-03-02T09:38:59.447Z,6.3
2018-03-02T09:40:01.866Z,6.4
2018-03-02T09:41:04.283Z,6.4
2018-03-02T09:42:06.703Z,6.4
2018-03-02T09:43:09.109Z,6.5
2018-03-02T09:44:11.527Z,6.6
2018-03-02T09:45:13.949Z,6.7
2018-03-02T09:46:16.413Z,6.8
2018-03-02T09:47:18.790Z,6.9
2018-03-02T09:48:21.497Z,6.9
2018-03-02T09:49:23.910Z,7
2018-03-02T09:50:26.328Z,7.1
2018-03-02T09:51:29.050Z,7.1
2018-03-02T09:52:31.467Z,7.1
2018-03-02T09:53:33.879Z,7.2
2018-03-02T09:54:36.298Z,7.1
2018-03-02T09:55:38.719Z,7.1
2018-03-02T09:56:41.748Z,7.2
2018-03-02T09:57:44.165Z,7.3
2018-03-02T09:58:46.591Z,7.3
2018-03-02T09:59:49.007Z,7.4
2018-03-02T10:00:51.427Z,7.5
2018-03-02T10:01:53.844Z,7.5
2018-03-02T10:02:56.257Z,7.5
2018-03-02T10:03:58.678Z,7.6
2018-03-02T10:05:01.383Z,7.6
2018-03-02T10:06:03.800Z,7.6
2018-03-02T10:07:06.213Z,7.7
2018-03-02T10:08:08.626Z,7.7
2018-03-02T10:09:11.060Z,7.8
2018-03-02T10:10:13.480Z,7.9
2018-03-02T10:11:15.885Z,7.9
2018-03-02T10:12:18.309Z,8
2018-03-02T10:13:20.735Z,8.1
2018-03-02T10:14:23.148Z,8.1
2018-03-02T10:15:25.563Z,8.2
2018-03-02T10:16:28.297Z,8.3
2018-03-02T10:17:30.717Z,8.5
2018-03-02T10:18:33.129Z,8.6
2018-03-02T10:19:35.844Z,8.8
2018-03-02T10:20:38.545Z,9
2018-03-02T10:21:40.984Z,9.1
2018-03-02T10:22:43.401Z,9.2
2018-03-02T10:23:45.818Z,9.3
2018-03-02T10:24:48.238Z,9.4
2018-03-02T10:25:50.665Z,9.4
2018-03-02T10:26:53.081Z,9.4
2018-03-02T10:27:55.795Z,9.4
2018-03-02T10:28:58.220Z,9.4
2018-03-02T10:30:00.648Z,9.4
2018-03-02T10:31:03.066Z,9.4
2018-03-02T10:32:05.772Z,9.4
2018-03-02T10:33:08.182Z,9.4
2018-03-02T10:34:10.612Z,9.4
2018-03-02T10:35:13.029Z,9.5
2018-03-02T10:36:15.443Z,9.5
2018-03-02T10:37:17.864Z,9.6
2018-03-02T10:38:20.574Z,9.6
2018-03-02T10:39:22.994Z,9.7
2018-03-02T10:40:25.421Z,9.7
2018-03-02T10:41:28.132Z,9.8
2018-03-02T10:42:30.825Z,9.9
2018-03-02T10:43:33.251Z,10
2018-03-02T10:44:35.962Z,10.2
2018-03-02T10:45:38.379Z,10.2
2018-03-02T10:46:41.112Z,10.3
2018-03-02T10:47:43.537Z,10.4
2018-03-02T10:48:45.951Z,10.4
2018-03-02T10:49:48.382Z,10.4
2018-03-02T10:50:50.804Z,10.3
2018-03-02T10:51:53.223Z,10.2
2018-03-02T10:52:55.649Z,10.2
2018-03-02T10:53:58.078Z,10.1
2018-03-02T10:55:00.494Z,10.1
2018-03-02T10:56:03.501Z,10.1
2018-03-02T10:57:05.919Z,10.2
2018-03-02T10:58:08.340Z,10.1
2018-03-02T10:59:11.134Z,10.1
2018-03-02T11:00:13.570Z,10.2
2018-03-02T11:01:15.983Z,10.3
2018-03-02T11:02:18.690Z,10.3
2018-03-02T11:03:21.397Z,10.4
2018-03-02T11:04:24.123Z,10.4
2018-03-02T11:05:26.541Z,10.3
2018-03-02T11:06:28.946Z,10.2
2018-03-02T11:07:32.283Z,10.1
2018-03-02T11:08:34.721Z,9.9
2018-03-02T11:09:37.137Z,9.8
2018-03-02T11:10:39.572Z,9.7
2018-03-02T11:11:42.274Z,9.5
2018-03-02T11:12:44.697Z,9.4
2018-03-02T11:13:47.117Z,9.4
2018-03-02T11:14:49.525Z,9.4
2018-03-02T11:15:51.951Z,9.3
2018-03-02T11:16:54.367Z,9.3
2018-03-02T11:17:56.787Z,9.2
2018-03-02T11:18:59.500Z,9.2
2018-03-02T11:20:01.925Z,9.1
2018-03-02T11:21:04.357Z,9
2018-03-02T11:22:06.771Z,9
2018-03-02T11:23:09.473Z,9.1
2018-03-02T11:24:11.892Z,9.1
2018-03-02T11:25:14.316Z,9.2
2018-03-02T11:26:16.729Z,9.2
2018-03-02T11:27:19.159Z,9.3
2018-03-02T11:28:21.571Z,9.2
2018-03-02T11:29:23.992Z,9.2
2018-03-02T11:30:26.406Z,9.2
2018-03-02T11:31:29.126Z,9.2
2018-03-02T11:32:31.543Z,9.2
2018-03-02T11:33:33.973Z,9.2
2018-03-02T11:34:36.379Z,9.3
2018-03-02T11:35:38.811Z,9.3
2018-03-02T11:36:41.580Z,9.4
2018-03-02T11:37:43.997Z,9.4
2018-03-02T11:38:46.418Z,9.4
2018-03-02T11:39:49.133Z,9.5
2018-03-02T11:40:51.552Z,9.5
2018-03-02T11:41:53.953Z,9.6
2018-03-02T11:42:56.372Z,9.7
2018-03-02T11:43:58.797Z,9.8
2018-03-02T11:45:01.226Z,9.8
2018-03-02T11:46:03.650Z,9.9
2018-03-02T11:47:06.083Z,9.9
2018-03-02T11:48:08.489Z,9.9
2018-03-02T11:49:10.916Z,10
2018-03-02T11:50:13.340Z,10.1
2018-03-02T11:51:16.114Z,10.2
2018-03-02T11:52:18.926Z,10.4
2018-03-02T11:53:21.517Z,10.5
2018-03-02T11:54:24.262Z,10.6
2018-03-02T11:55:26.691Z,10.7
2018-03-02T11:56:29.090Z,10.7
2018-03-02T11:57:31.512Z,10.7
2018-03-02T11:58:33.938Z,10.6
2018-03-02T11:59:36.358Z,10.6
2018-03-02T12:00:38.771Z,10.5
2018-03-02T12:01:41.484Z,10.5
2018-03-02T12:02:43.903Z,10.5
2018-03-02T12:03:46.340Z,10.6
2018-03-02T12:04:49.045Z,10.6
2018-03-02T12:05:51.458Z,10.7
2018-03-02T12:06:53.880Z,10.7
2018-03-02T12:07:56.302Z,10.8
2018-03-02T12:08:58.727Z,10.8
2018-03-02T12:10:01.143Z,10.8
2018-03-02T12:11:03.566Z,10.8
2018-03-02T12:12:05.986Z,10.9
2018-03-02T12:13:08.399Z,11
2018-03-02T12:14:10.830Z,11.1
2018-03-02T12:15:13.260Z,11.2
2018-03-02T12:16:15.688Z,11.2
2018-03-02T12:17:18.105Z,11.2
2018-03-02T12:18:20.519Z,11.3
2018-03-02T12:19:23.233Z,11.3
2018-03-02T12:20:25.660Z,11.3
2018-03-02T12:21:28.077Z,11.3
2018-03-02T12:22:30.509Z,11.3
2018-03-02T12:23:33.262Z,11.3
2018-03-02T12:24:35.689Z,11.3
2018-03-02T12:25:38.389Z,11.3
2018-03-02T12:26:40.810Z,11.2
2018-03-02T12:27:43.532Z,11.2
2018-03-02T12:28:45.959Z,11.2
2018-03-02T12:29:48.386Z,11.2
2018-03-02T12:30:50.810Z,11.2
2018-03-02T12:31:53.227Z,11.1
2018-03-02T12:32:55.652Z,11
2018-03-02T12:33:58.383Z,10.8
2018-03-02T12:35:01.414Z,10.7
2018-03-02T12:36:03.829Z,10.6
2018-03-02T12:37:06.528Z,10.5
2018-03-02T12:38:08.947Z,10.4
2018-03-02T12:39:11.687Z,10.4
2018-03-02T12:40:14.116Z,10.4
2018-03-02T12:41:16.533Z,10.4
2018-03-02T12:42:18.965Z,10.5
2018-03-02T12:43:21.667Z,10.5
2018-03-02T12:44:24.106Z,10.5
2018-03-02T12:45:26.507Z,10.6
2018-03-02T12:46:28.937Z,10.6
2018-03-02T12:47:31.348Z,10.6
2018-03-02T12:48:34.062Z,10.6
2018-03-02T12:49:36.476Z,10.6
2018-03-02T12:50:38.896Z,10.6
2018-03-02T12:51:41.321Z,10.6
2018-03-02T12:52:43.744Z,10.4
2018-03-02T12:53:46.159Z,10.4
2018-03-02T12:54:48.878Z,10.3
2018-03-02T12:55:51.573Z,10.2
2018-03-02T12:56:54.306Z,10.2
2018-03-02T12:57:56.729Z,10.3
2018-03-02T12:58:59.155Z,10.3
2018-03-02T13:00:01.585Z,10.4
2018-03-02T13:01:04.329Z,10.5
2018-03-02T13:02:06.736Z,10.6
2018-03-02T13:03:09.168Z,10.7
2018-03-02T13:04:11.870Z,10.8
2018-03-02T13:05:14.292Z,10.7
2018-03-02T13:06:17.007Z,10.7
2018-03-02T13:07:20.003Z,10.8
2018-03-02T13:08:22.423Z,10.8
2018-03-02T13:09:24.859Z,10.9
2018-03-02T13:10:27.276Z,10.8
2018-03-02T13:11:29.705Z,10.8
2018-03-02T13:12:32.114Z,10.9
2018-03-02T13:13:34.823Z,10.8
2018-03-02T13:14:37.541Z,10.8
2018-03-02T13:15:39.964Z,10.7
2018-03-02T13:16:42.385Z,10.6
2018-03-02T13:17:44.806Z,10.5
2018-03-02T13:18:47.270Z,10.3
2018-03-02T13:19:49.652Z,10.2
2018-03-02T13:20:52.074Z,10
2018-03-02T13:21:54.491Z,9.9
2018-03-02T13:22:56.909Z,9.7
2018-03-02T13:23:59.337Z,9.6
2018-03-02T13:25:01.762Z,9.5
2018-03-02T13:26:04.185Z,9.4
2018-03-02T13:27:06.600Z,9.4
2018-03-02T13:28:09.015Z,9.4
2018-03-02T13:29:11.444Z,9.4
2018-03-02T13:30:13.895Z,9.4
2018-03-02T13:31:16.286Z,9.5
2018-03-02T13:32:18.708Z,9.4
2018-03-02T13:33:21.416Z,9.4
2018-03-02T13:34:24.140Z,9.4
2018-03-02T13:35:26.565Z,9.3
2018-03-02T13:36:28.974Z,9.3
2018-03-02T13:37:31.392Z,9.3
2018-03-02T13:38:33.816Z,9.2
2018-03-02T13:39:36.231Z,9.1
2018-03-02T13:40:38.658Z,9.1
2018-03-02T13:41:41.074Z,9
2018-03-02T13:42:43.494Z,9
2018-03-02T13:43:46.195Z,8.9
2018-03-02T13:44:48.918Z,8.9
2018-03-02T13:45:51.331Z,8.8
2018-03-02T13:46:54.049Z,8.8
2018-03-02T13:47:56.453Z,8.7
2018-03-02T13:48:58.869Z,8.7
2018-03-02T13:50:01.291Z,8.7
2018-03-02T13:51:04.003Z,8.7
2018-03-02T13:52:06.422Z,8.7
2018-03-02T13:53:08.855Z,8.8
2018-03-02T13:54:11.567Z,8.8
2018-03-02T13:55:13.993Z,8.8
2018-03-02T13:56:16.695Z,8.8
2018-03-02T13:57:19.119Z,8.7
2018-03-02T13:58:21.534Z,8.7
2018-03-02T13:59:23.958Z,8.7
2018-03-02T14:00:26.359Z,8.7
2018-03-02T14:01:28.788Z,8.6
2018-03-02T14:02:31.197Z,8.6
2018-03-02T14:03:33.618Z,8.5
2018-03-02T14:04:36.037Z,8.4
2018-03-02T14:05:38.456Z,8.4
2018-03-02T14:06:40.876Z,8.3